Time;durP1;ratioP1;P1;durP2;ratioP2;P2;SDS_P1;SDS_P2;PMS_P1;PMS_P2;Temp;Humidity;BMP_temperature;BMP_pressure;BME280_temperature;BME280_humidity;BME280_pressure;Samples;Min_cycle;Max_cycle;Signal;HPM_P1;HPM_P2
2022/07/08 00:00:43;;;;;;;3.97;2.63;;;17.30;99.90;;;;;;4971096;28;20598;-67
2022/07/08 00:03:09;;;;;;;5.07;3.00;;;17.30;99.90;;;;;;4971845;28;20207;-67
2022/07/08 00:05:35;;;;;;;3.53;2.90;;;17.20;99.90;;;;;;4973173;28;20263;-66
2022/07/08 00:08:01;;;;;;;3.37;2.10;;;17.20;99.90;;;;;;4972336;28;20180;-67
2022/07/08 00:10:26;;;;;;;3.67;2.93;;;17.20;99.90;;;;;;4971155;28;20622;-67
2022/07/08 00:12:52;;;;;;;4.20;3.00;;;17.10;99.90;;;;;;4971245;28;20443;-67
2022/07/08 00:15:18;;;;;;;4.60;2.60;;;17.10;99.90;;;;;;4972858;28;20190;-67
2022/07/08 00:17:43;;;;;;;4.80;3.00;;;17.00;99.90;;;;;;4972901;28;20196;-67
2022/07/08 00:20:09;;;;;;;4.20;2.77;;;17.00;99.90;;;;;;4970728;28;20251;-67
2022/07/08 00:22:35;;;;;;;8.30;3.63;;;16.90;99.90;;;;;;4972419;28;20180;-67
2022/07/08 00:25:01;;;;;;;5.37;3.03;;;16.70;99.90;;;;;;4970679;28;20440;-66
2022/07/08 00:27:26;;;;;;;10.63;3.90;;;16.70;99.90;;;;;;4964749;28;20464;-67
2022/07/08 00:29:52;;;;;;;4.93;3.30;;;16.60;99.90;;;;;;4971347;28;20212;-67
2022/07/08 00:32:18;;;;;;;4.23;2.80;;;16.50;99.90;;;;;;4972659;28;20188;-67
2022/07/08 00:34:44;;;;;;;3.93;2.80;;;16.50;99.90;;;;;;4972098;28;20246;-68
2022/07/08 00:37:09;;;;;;;5.43;2.50;;;16.50;99.90;;;;;;4971283;28;20187;-67
2022/07/08 00:39:35;;;;;;;4.20;2.83;;;16.40;99.90;;;;;;4971401;28;20246;-67
2022/07/08 00:42:01;;;;;;;9.30;3.40;;;16.40;99.90;;;;;;4973333;28;20195;-67
2022/07/08 00:44:26;;;;;;;3.90;2.77;;;16.40;99.90;;;;;;4972309;28;20255;-67
2022/07/08 00:46:52;;;;;;;6.47;3.20;;;16.30;99.90;;;;;;4972252;28;20627;-67
2022/07/08 00:49:18;;;;;;;9.20;3.70;;;16.30;99.90;;;;;;4971310;28;20771;-67
2022/07/08 00:51:45;;;;;;;6.93;3.73;;;16.30;99.90;;;;;;4971646;28;20609;-66
2022/07/08 00:54:15;;;;;;;6.03;3.43;;;16.20;99.90;;;;;;4971690;28;20569;-67
2022/07/08 00:56:41;;;;;;;8.90;4.50;;;16.20;99.90;;;;;;4972063;28;20439;-67
2022/07/08 00:59:07;;;;;;;5.50;5.10;;;16.10;99.90;;;;;;4969760;28;20471;-67
2022/07/08 01:01:33;;;;;;;8.33;4.40;;;16.00;99.90;;;;;;4971082;28;20436;-67
2022/07/08 01:03:59;;;;;;;6.33;4.17;;;16.00;99.90;;;;;;4971590;28;20439;-67
2022/07/08 01:06:25;;;;;;;6.87;4.13;;;16.00;99.90;;;;;;4971929;28;20188;-67
2022/07/08 01:08:50;;;;;;;7.47;5.37;;;16.10;99.90;;;;;;4970558;28;20514;-67
2022/07/08 01:11:16;;;;;;;5.53;4.70;;;16.10;99.90;;;;;;4971834;28;20229;-67
2022/07/08 01:13:43;;;;;;;7.13;4.53;;;16.10;99.90;;;;;;4971331;28;20561;-67
2022/07/08 01:16:08;;;;;;;10.23;4.67;;;16.00;99.90;;;;;;4971011;28;20634;-67
2022/07/08 01:18:34;;;;;;;4.47;3.80;;;16.10;99.90;;;;;;4970959;28;20475;-67
2022/07/08 01:21:00;;;;;;;5.30;4.47;;;16.10;99.90;;;;;;4970406;28;20520;-67
2022/07/08 01:23:25;;;;;;;6.67;4.67;;;15.90;99.90;;;;;;4971275;28;20391;-67
2022/07/08 01:25:52;;;;;;;6.00;4.57;;;15.90;99.90;;;;;;4971522;28;20187;-67
2022/07/08 01:28:18;;;;;;;6.83;4.30;;;15.80;99.90;;;;;;4970319;28;20180;-67
2022/07/08 01:30:44;;;;;;;7.90;4.00;;;15.80;99.90;;;;;;4971724;28;20447;-67
2022/07/08 01:33:10;;;;;;;5.80;4.50;;;15.70;99.90;;;;;;4970961;28;20534;-66
2022/07/08 01:35:35;;;;;;;7.03;4.10;;;15.60;99.90;;;;;;4971457;28;20188;-67
2022/07/08 01:38:02;;;;;;;5.20;4.50;;;15.50;99.90;;;;;;4971693;28;20212;-67
2022/07/08 01:40:27;;;;;;;4.77;3.70;;;15.40;99.90;;;;;;4970181;28;20216;-67
2022/07/08 01:42:53;;;;;;;7.67;4.10;;;15.40;99.90;;;;;;4963879;28;20531;-67
2022/07/08 01:45:18;;;;;;;7.37;4.70;;;15.30;99.90;;;;;;4968040;28;20188;-67
2022/07/08 01:47:44;;;;;;;6.10;3.80;;;15.30;99.90;;;;;;4971388;28;20192;-66
2022/07/08 01:50:09;;;;;;;9.13;4.60;;;15.20;99.90;;;;;;4970866;28;20587;-67
2022/07/08 01:52:36;;;;;;;7.97;4.17;;;15.10;99.90;;;;;;4968975;28;20188;-67
2022/07/08 01:55:01;;;;;;;6.83;4.30;;;15.00;99.90;;;;;;4970608;28;20199;-67
2022/07/08 01:57:27;;;;;;;4.57;4.17;;;15.00;99.90;;;;;;4971187;28;20879;-67
2022/07/08 01:59:52;;;;;;;3.27;2.97;;;14.90;99.90;;;;;;4968976;28;20204;-67
2022/07/08 02:02:20;;;;;;;5.60;4.30;;;14.90;99.90;;;;;;4971411;28;20266;-67
2022/07/08 02:04:46;;;;;;;6.63;3.70;;;14.80;99.90;;;;;;4971453;28;20180;-67
2022/07/08 02:07:11;;;;;;;10.27;4.27;;;14.80;99.90;;;;;;4970697;28;21431;-67
2022/07/08 02:09:39;;;;;;;8.93;4.10;;;14.80;99.90;;;;;;4970931;28;20478;-66
2022/07/08 02:12:18;;;;;;;6.07;3.97;;;14.70;99.90;;;;;;4975226;28;20575;-67
2022/07/08 02:14:45;;;;;;;5.50;4.20;;;14.70;99.90;;;;;;4974483;28;20438;-67
2022/07/08 02:17:10;;;;;;;7.27;4.33;;;14.60;99.90;;;;;;4974782;28;20448;-67
2022/07/08 02:19:36;;;;;;;5.33;4.30;;;14.60;99.90;;;;;;4973518;28;20486;-67
2022/07/08 02:22:02;;;;;;;7.20;5.10;;;14.50;99.90;;;;;;4975045;28;20184;-67
2022/07/08 02:24:28;;;;;;;5.50;3.20;;;14.40;99.90;;;;;;4974320;28;20180;-67
2022/07/08 02:26:54;;;;;;;5.33;3.93;;;14.40;99.90;;;;;;4974391;28;20506;-67
2022/07/08 02:29:19;;;;;;;6.23;4.40;;;14.30;99.90;;;;;;4973487;28;20324;-67
2022/07/08 02:31:45;;;;;;;5.50;4.03;;;14.30;99.90;;;;;;4974851;28;20219;-67
2022/07/08 02:34:10;;;;;;;6.90;4.63;;;14.20;99.90;;;;;;4974554;28;20185;-66
2022/07/08 02:36:36;;;;;;;7.57;4.53;;;14.10;99.90;;;;;;4973266;28;20181;-66
2022/07/08 02:39:02;;;;;;;10.33;5.53;;;14.20;99.90;;;;;;4973128;28;20713;-66
2022/07/08 02:41:27;;;;;;;7.13;4.73;;;14.10;99.90;;;;;;4973682;28;20392;-66
2022/07/08 02:43:53;;;;;;;5.30;4.23;;;14.10;99.90;;;;;;4974334;28;20993;-67
2022/07/08 02:46:18;;;;;;;4.60;3.80;;;14.10;99.90;;;;;;4974568;28;20180;-66
2022/07/08 02:48:44;;;;;;;6.73;3.90;;;14.00;99.90;;;;;;4972906;28;20344;-66
2022/07/08 02:51:09;;;;;;;7.17;4.23;;;14.00;99.90;;;;;;4973579;28;20531;-66
2022/07/08 02:53:35;;;;;;;5.03;4.27;;;13.90;99.90;;;;;;4974432;28;20203;-67
2022/07/08 02:56:00;;;;;;;7.80;4.80;;;13.90;99.90;;;;;;4975024;28;20281;-67
2022/07/08 02:58:26;;;;;;;4.93;4.07;;;13.90;99.90;;;;;;4973351;28;20223;-66
2022/07/08 03:00:51;;;;;;;3.90;3.30;;;13.90;99.90;;;;;;4973314;28;20275;-66
2022/07/08 03:03:17;;;;;;;4.70;4.30;;;13.90;99.90;;;;;;4973006;28;20753;-66
2022/07/08 03:05:43;;;;;;;11.47;4.50;;;13.90;99.90;;;;;;4973568;28;20189;-66
2022/07/08 03:08:08;;;;;;;5.90;5.50;;;13.90;99.90;;;;;;4973145;28;20687;-67
2022/07/08 03:10:34;;;;;;;8.40;3.80;;;13.80;99.90;;;;;;4973452;28;20698;-67
2022/07/08 03:12:59;;;;;;;5.03;4.03;;;13.80;99.90;;;;;;4973411;28;20335;-66
2022/07/08 03:15:26;;;;;;;6.87;4.40;;;13.70;99.90;;;;;;4973565;28;20642;-66
2022/07/08 03:17:51;;;;;;;5.13;3.90;;;13.80;99.90;;;;;;4973979;28;20203;-66
2022/07/08 03:20:18;;;;;;;5.93;4.23;;;13.80;99.90;;;;;;4972251;28;20462;-66
2022/07/08 03:22:43;;;;;;;7.30;4.00;;;13.70;99.90;;;;;;4972497;28;20242;-66
2022/07/08 03:25:09;;;;;;;6.37;3.60;;;13.70;99.90;;;;;;4970810;28;20443;-66
2022/07/08 03:27:34;;;;;;;6.00;4.43;;;13.70;99.90;;;;;;4974199;28;20196;-67
2022/07/08 03:30:00;;;;;;;5.60;3.30;;;13.70;99.90;;;;;;4971995;28;20204;-67
2022/07/08 03:32:26;;;;;;;7.70;4.30;;;13.70;99.90;;;;;;4972990;28;20180;-67
2022/07/08 03:34:52;;;;;;;5.67;4.00;;;13.70;99.90;;;;;;4972114;28;20189;-66
2022/07/08 03:37:18;;;;;;;14.00;4.70;;;13.70;99.90;;;;;;4972293;28;20450;-66
2022/07/08 03:39:43;;;;;;;6.70;3.87;;;13.70;99.90;;;;;;4972948;28;20204;-66
2022/07/08 03:42:09;;;;;;;6.17;4.40;;;13.70;99.90;;;;;;4972741;28;20268;-67
2022/07/08 03:44:34;;;;;;;6.27;3.77;;;13.80;99.90;;;;;;4974860;28;20180;-66
2022/07/08 03:47:00;;;;;;;8.30;4.33;;;13.80;99.90;;;;;;4967877;28;20751;-66
2022/07/08 03:49:26;;;;;;;5.87;4.17;;;13.80;99.90;;;;;;4968733;28;20568;-66
2022/07/08 03:51:51;;;;;;;10.33;4.63;;;13.70;99.90;;;;;;4964090;28;20219;-67
2022/07/08 03:54:17;;;;;;;5.30;3.93;;;13.70;99.90;;;;;;4960757;28;20275;-66
2022/07/08 03:56:42;;;;;;;5.40;4.13;;;13.70;99.90;;;;;;4970131;28;20208;-67
2022/07/08 03:59:08;;;;;;;4.93;4.30;;;13.80;99.90;;;;;;4969130;28;20219;-66
2022/07/08 04:01:34;;;;;;;5.27;3.83;;;13.80;99.90;;;;;;4972907;28;20200;-66
2022/07/08 04:03:59;;;;;;;6.77;3.67;;;13.70;99.90;;;;;;4969081;28;20263;-66
2022/07/08 04:06:25;;;;;;;6.03;3.93;;;13.70;99.90;;;;;;4970034;28;20192;-66
2022/07/08 04:08:50;;;;;;;10.27;5.03;;;13.60;99.90;;;;;;4962958;28;20258;-66
2022/07/08 04:11:16;;;;;;;8.50;4.93;;;13.70;99.90;;;;;;4972132;28;20200;-66
2022/07/08 04:13:42;;;;;;;6.20;3.97;;;13.70;99.90;;;;;;4972893;28;20527;-66
2022/07/08 04:16:13;;;;;;;6.83;4.30;;;13.80;99.90;;;;;;4973233;28;20497;-66
2022/07/08 04:18:39;;;;;;;6.30;3.73;;;13.80;99.90;;;;;;4964086;28;20213;-67
2022/07/08 04:21:06;;;;;;;5.37;4.17;;;13.90;99.90;;;;;;4966027;28;20479;-66
2022/07/08 04:23:32;;;;;;;12.13;4.90;;;13.90;99.90;;;;;;4965674;28;20442;-66
2022/07/08 04:25:58;;;;;;;10.20;5.90;;;13.90;99.90;;;;;;4967951;28;20435;-66
2022/07/08 04:28:23;;;;;;;11.40;4.97;;;14.10;99.90;;;;;;4967569;28;20272;-66
2022/07/08 04:30:49;;;;;;;3.93;3.53;;;14.20;99.90;;;;;;4966619;28;20272;-66
2022/07/08 04:33:14;;;;;;;9.03;4.80;;;14.30;99.90;;;;;;4968118;28;20274;-66
2022/07/08 04:35:40;;;;;;;10.63;4.23;;;14.30;99.90;;;;;;4967396;28;20324;-66
2022/07/08 04:38:05;;;;;;;5.23;3.73;;;14.20;99.90;;;;;;4962871;28;20224;-66
2022/07/08 04:40:31;;;;;;;7.37;4.23;;;14.20;99.90;;;;;;4963695;28;20228;-66
2022/07/08 04:42:57;;;;;;;10.90;4.40;;;14.20;99.90;;;;;;4969081;28;20181;-66
2022/07/08 04:45:23;;;;;;;10.63;3.80;;;14.30;99.90;;;;;;4965064;28;20176;-67
2022/07/08 04:47:49;;;;;;;7.80;3.90;;;14.20;99.90;;;;;;4968806;28;20207;-66
2022/07/08 04:50:15;;;;;;;7.53;3.57;;;14.50;99.90;;;;;;4969905;28;20479;-67
2022/07/08 04:52:41;;;;;;;9.37;4.60;;;14.60;99.90;;;;;;4965635;28;20440;-66
2022/07/08 04:55:07;;;;;;;7.23;4.30;;;14.80;99.90;;;;;;4969345;28;20268;-67
2022/07/08 04:57:32;;;;;;;6.53;3.80;;;15.00;99.90;;;;;;4971633;28;20570;-67
2022/07/08 05:00:01;;;;;;;7.70;3.87;;;15.20;99.90;;;;;;4967221;28;20464;-67
2022/07/08 05:02:27;;;;;;;5.63;3.90;;;15.40;99.90;;;;;;4967210;28;20614;-67
2022/07/08 05:04:52;;;;;;;7.30;4.00;;;15.50;99.90;;;;;;4972382;28;20439;-66
2022/07/08 05:07:18;;;;;;;6.30;3.50;;;15.50;99.90;;;;;;4967108;28;20530;-67
2022/07/08 05:09:44;;;;;;;5.40;3.70;;;15.70;99.90;;;;;;4968290;28;20239;-66
2022/07/08 05:12:10;;;;;;;5.63;2.97;;;15.90;99.90;;;;;;4960610;28;20181;-67
2022/07/08 05:14:36;;;;;;;4.60;3.43;;;16.10;99.90;;;;;;4966395;28;20458;-66
2022/07/08 05:17:02;;;;;;;6.60;3.40;;;16.20;99.90;;;;;;4968693;28;20242;-67
2022/07/08 05:19:27;;;;;;;6.57;3.37;;;16.30;99.90;;;;;;4967792;28;20243;-67
2022/07/08 05:21:52;;;;;;;5.97;3.20;;;16.20;99.90;;;;;;4961045;28;20324;-66
2022/07/08 05:24:18;;;;;;;6.20;3.60;;;16.30;99.90;;;;;;4970175;28;20704;-67
2022/07/08 05:26:44;;;;;;;3.73;2.77;;;16.30;99.90;;;;;;4966865;28;20200;-67
2022/07/08 05:29:09;;;;;;;4.40;3.23;;;16.50;99.90;;;;;;4967001;28;20208;-67
2022/07/08 05:31:35;;;;;;;6.13;3.37;;;16.80;99.90;;;;;;4969947;28;20192;-67
2022/07/08 05:34:00;;;;;;;12.67;3.47;;;17.00;99.90;;;;;;4970699;28;20206;-67
2022/07/08 05:36:26;;;;;;;4.73;2.83;;;17.10;99.90;;;;;;4972139;28;20184;-67
2022/07/08 05:38:51;;;;;;;8.73;3.40;;;17.40;99.90;;;;;;4970645;28;20270;-67
2022/07/08 05:41:17;;;;;;;6.00;3.37;;;17.50;99.90;;;;;;4970240;28;20199;-67
2022/07/08 05:43:43;;;;;;;5.77;2.90;;;17.40;99.90;;;;;;4973212;28;20575;-66
2022/07/08 05:46:08;;;;;;;3.13;2.63;;;17.50;99.90;;;;;;4967877;28;20187;-67
2022/07/08 05:48:34;;;;;;;5.27;3.30;;;17.40;99.90;;;;;;4970663;28;20207;-67
2022/07/08 05:50:59;;;;;;;5.37;2.90;;;17.40;99.90;;;;;;4968357;28;20650;-67
2022/07/08 05:53:25;;;;;;;3.73;3.03;;;17.40;99.90;;;;;;4970136;28;20187;-67
2022/07/08 05:55:51;;;;;;;5.77;3.20;;;17.50;99.90;;;;;;4968662;28;20179;-67
2022/07/08 05:58:16;;;;;;;4.60;2.93;;;17.60;99.90;;;;;;4964772;28;20222;-67
2022/07/08 06:00:42;;;;;;;4.80;2.90;;;17.70;99.90;;;;;;4967619;28;20440;-66
2022/07/08 06:03:07;;;;;;;6.10;3.20;;;17.70;99.90;;;;;;4968529;28;20255;-67
2022/07/08 06:05:33;;;;;;;5.90;3.53;;;17.80;99.90;;;;;;4970543;28;20180;-67
2022/07/08 06:07:58;;;;;;;3.60;2.80;;;17.90;99.90;;;;;;4968128;28;20191;-67
2022/07/08 06:10:28;;;;;;;5.70;3.10;;;18.10;99.90;;;;;;4968938;28;20204;-67
2022/07/08 06:12:54;;;;;;;5.90;3.53;;;18.40;99.90;;;;;;4967651;28;20342;-67
2022/07/08 06:15:20;;;;;;;6.93;3.13;;;18.50;99.90;;;;;;4968827;28;20539;-67
2022/07/08 06:17:46;;;;;;;8.77;3.43;;;18.60;99.90;;;;;;4963760;28;20459;-67
2022/07/08 06:20:14;;;;;;;5.03;2.53;;;18.80;99.90;;;;;;4971127;28;20477;-67
2022/07/08 06:22:40;;;;;;;2.90;2.47;;;18.80;99.90;;;;;;4970710;28;20319;-67
2022/07/08 06:25:06;;;;;;;8.03;2.70;;;18.50;99.90;;;;;;4969055;28;20436;-67
2022/07/08 06:27:32;;;;;;;8.00;3.63;;;18.30;99.90;;;;;;4971395;28;20787;-67
2022/07/08 06:29:57;;;;;;;2.73;2.30;;;18.50;99.90;;;;;;4969747;28;20455;-67
2022/07/08 06:32:23;;;;;;;5.80;3.20;;;18.70;99.90;;;;;;4969543;28;20278;-67
2022/07/08 06:34:48;;;;;;;6.30;2.60;;;19.00;99.90;;;;;;4970449;28;20200;-67
2022/07/08 06:37:14;;;;;;;4.70;2.90;;;19.20;99.90;;;;;;4968889;28;20185;-67
2022/07/08 06:39:40;;;;;;;6.60;3.00;;;19.20;99.90;;;;;;4967109;28;20220;-67
2022/07/08 06:42:05;;;;;;;2.87;2.50;;;19.10;99.90;;;;;;4967345;28;20202;-67
2022/07/08 06:44:31;;;;;;;6.77;2.50;;;19.00;99.90;;;;;;4968680;28;20721;-67
2022/07/08 06:46:56;;;;;;;7.87;4.57;;;18.90;99.90;;;;;;4964125;28;20193;-64
2022/07/08 06:49:22;;;;;;;7.30;4.03;;;18.80;99.90;;;;;;4973050;28;20223;-64
2022/07/08 06:51:48;;;;;;;10.40;2.80;;;18.80;99.90;;;;;;4952157;28;20200;-63
2022/07/08 06:56:57;;;;;;;4.40;2.40;;;19.00;99.90;;;;;;4963312;28;20259;-69
2022/07/08 06:59:23;;;;;;;3.97;2.70;;;19.20;99.40;;;;;;4967709;28;20988;-67
2022/07/08 07:01:48;;;;;;;6.23;2.43;;;19.50;99.90;;;;;;4969434;28;20307;-68
2022/07/08 07:04:14;;;;;;;3.30;3.00;;;19.50;98.60;;;;;;4968439;28;20199;-67
2022/07/08 07:06:39;;;;;;;3.93;2.70;;;19.40;99.10;;;;;;4971084;28;20634;-66
2022/07/08 07:09:05;;;;;;;4.20;2.87;;;19.30;98.60;;;;;;4970605;28;20611;-69
2022/07/08 07:11:31;;;;;;;5.87;2.60;;;19.10;98.50;;;;;;4967071;28;20191;-70
2022/07/08 07:13:56;;;;;;;2.50;2.20;;;19.30;98.60;;;;;;4969959;28;20196;-70
2022/07/08 07:16:22;;;;;;;2.93;2.60;;;19.40;98.60;;;;;;4968162;28;20204;-66
2022/07/08 07:18:48;;;;;;;3.10;2.43;;;19.30;98.30;;;;;;4972615;28;20271;-66
2022/07/08 07:21:13;;;;;;;3.97;2.63;;;19.40;97.30;;;;;;4964925;28;20236;-65
2022/07/08 07:23:39;;;;;;;3.50;2.83;;;19.50;96.90;;;;;;4970715;28;21036;-66
2022/07/08 07:26:05;;;;;;;4.00;3.27;;;19.80;96.30;;;;;;4972156;28;20180;-65
2022/07/08 07:28:30;;;;;;;3.40;2.30;;;20.30;95.90;;;;;;4970159;28;20223;-65
2022/07/08 07:30:56;;;;;;;3.70;2.40;;;20.60;95.60;;;;;;4969149;28;20218;-65
2022/07/08 07:33:21;;;;;;;4.00;2.43;;;20.50;94.80;;;;;;4973134;28;20188;-66
2022/07/08 07:35:47;;;;;;;5.33;2.80;;;20.30;94.90;;;;;;4971097;28;20196;-65
2022/07/08 07:38:13;;;;;;;9.03;2.60;;;19.90;94.40;;;;;;4972575;28;20208;-65
2022/07/08 07:40:38;;;;;;;6.60;2.67;;;19.80;95.30;;;;;;4972367;28;20216;-66
2022/07/08 07:43:04;;;;;;;3.10;2.37;;;19.60;94.70;;;;;;4962753;28;20494;-65
2022/07/08 07:45:30;;;;;;;2.50;2.30;;;19.60;94.80;;;;;;4973746;28;20181;-66
2022/07/08 07:47:55;;;;;;;3.47;2.37;;;19.60;95.00;;;;;;4973954;28;20257;-66
2022/07/08 07:50:21;;;;;;;3.57;2.70;;;19.50;95.50;;;;;;4967864;28;20676;-66
2022/07/08 07:52:46;;;;;;;2.27;2.07;;;19.70;95.10;;;;;;4968893;28;20184;-66
2022/07/08 07:55:12;;;;;;;4.40;2.30;;;19.90;95.30;;;;;;4969150;28;20192;-66
2022/07/08 07:57:38;;;;;;;4.13;2.30;;;20.00;94.50;;;;;;4971056;28;20259;-65
2022/07/08 08:00:05;;;;;;;10.03;2.93;;;20.40;93.70;;;;;;4971177;28;20649;-65
2022/07/08 08:02:31;;;;;;;3.63;2.20;;;20.50;93.70;;;;;;4966411;28;20439;-66
2022/07/08 08:04:56;;;;;;;3.00;2.20;;;20.50;92.70;;;;;;4968755;28;20442;-66
2022/07/08 08:07:22;;;;;;;5.90;2.70;;;20.30;91.90;;;;;;4972300;28;20669;-66
2022/07/08 08:09:47;;;;;;;2.40;2.20;;;20.60;92.50;;;;;;4971582;28;20211;-66
2022/07/08 08:12:13;;;;;;;5.27;2.13;;;20.70;91.50;;;;;;4964843;28;20192;-66
2022/07/08 08:14:38;;;;;;;4.87;2.33;;;20.90;92.30;;;;;;4969494;28;20274;-66
2022/07/08 08:17:04;;;;;;;8.47;2.07;;;21.20;91.60;;;;;;4971510;28;20646;-66
2022/07/08 08:19:31;;;;;;;3.93;2.30;;;21.10;91.10;;;;;;4970341;28;20219;-66
2022/07/08 08:21:56;;;;;;;4.97;2.00;;;20.70;91.40;;;;;;4962709;28;20187;-66
2022/07/08 08:24:22;;;;;;;3.40;2.43;;;20.50;91.70;;;;;;4971154;28;20439;-66
2022/07/08 08:26:47;;;;;;;3.60;2.37;;;20.50;91.50;;;;;;4971466;28;20199;-67
2022/07/08 08:29:13;;;;;;;3.23;2.17;;;20.50;91.60;;;;;;4967351;28;20209;-66
2022/07/08 08:31:38;;;;;;;4.37;2.77;;;20.70;90.80;;;;;;4966874;28;20180;-66
2022/07/08 08:34:04;;;;;;;4.53;2.10;;;20.10;91.00;;;;;;4970658;28;20190;-66
2022/07/08 08:36:30;;;;;;;3.80;2.43;;;19.90;91.70;;;;;;4972584;28;20184;-66
2022/07/08 08:38:55;;;;;;;4.77;2.23;;;19.90;92.30;;;;;;4968588;28;20295;-66
2022/07/08 08:41:22;;;;;;;4.07;2.10;;;20.10;92.30;;;;;;4965931;28;20192;-66
2022/07/08 08:43:48;;;;;;;5.87;2.40;;;20.80;91.50;;;;;;4970551;28;20181;-66
2022/07/08 08:46:17;;;;;;;4.23;3.37;;;21.50;90.50;;;;;;4969888;28;20442;-67
2022/07/08 08:48:46;;;;;;;5.20;2.87;;;22.00;87.40;;;;;;4965445;28;20251;-67
2022/07/08 08:51:17;;;;;;;6.13;2.10;;;22.50;86.30;;;;;;4963959;28;20475;-66
2022/07/08 08:53:44;;;;;;;2.33;2.00;;;22.50;82.80;;;;;;4970007;28;21025;-67
2022/07/08 08:56:12;;;;;;;5.13;2.37;;;22.70;83.10;;;;;;4968237;28;20447;-67
2022/07/08 08:58:46;;;;;;;2.53;1.90;;;22.80;80.30;;;;;;4968976;28;20486;-67
2022/07/08 09:01:12;;;;;;;3.20;2.90;;;22.60;81.10;;;;;;4965710;28;20904;-68
2022/07/08 09:03:38;;;;;;;5.60;3.10;;;22.60;81.70;;;;;;4969417;28;20947;-67
2022/07/08 09:06:04;;;;;;;5.50;3.63;;;22.50;82.10;;;;;;4970013;28;20435;-66
2022/07/08 09:08:30;;;;;;;6.03;2.43;;;22.30;80.30;;;;;;4967282;28;20208;-66
2022/07/08 09:10:56;;;;;;;3.23;2.37;;;22.10;82.60;;;;;;4965671;28;20450;-66
2022/07/08 09:13:23;;;;;;;4.73;2.20;;;22.10;81.90;;;;;;4967097;28;20447;-67
2022/07/08 09:15:50;;;;;;;3.67;2.10;;;21.90;82.80;;;;;;4967619;28;20184;-67
2022/07/08 09:18:20;;;;;;;4.80;2.37;;;22.40;82.90;;;;;;4970531;28;20456;-67
2022/07/08 09:20:48;;;;;;;4.90;1.83;;;22.60;82.80;;;;;;4969182;28;20431;-66
2022/07/08 09:23:20;;;;;;;6.43;2.40;;;22.90;79.70;;;;;;4965985;28;20587;-67
2022/07/08 09:25:48;;;;;;;4.40;1.93;;;23.40;79.10;;;;;;4971992;28;20474;-67
2022/07/08 09:28:35;;;;;;;2.83;1.87;;;23.70;76.20;;;;;;4972565;28;20522;-68
2022/07/08 09:31:04;;;;;;;2.90;2.43;;;23.90;75.80;;;;;;4964649;28;21321;-67
2022/07/08 09:33:30;;;;;;;6.57;2.67;;;24.20;74.30;;;;;;4966734;28;20439;-67
2022/07/08 09:36:00;;;;;;;6.53;2.07;;;24.20;74.30;;;;;;4966779;28;20446;-67
2022/07/08 09:38:29;;;;;;;4.97;2.20;;;24.50;73.30;;;;;;4970207;28;20571;-64
2022/07/08 09:41:02;;;;;;;3.33;1.90;;;24.20;72.50;;;;;;4973166;28;22261;-63
2022/07/08 09:43:27;;;;;;;4.87;2.27;;;24.10;71.90;;;;;;4971382;28;20447;-64
2022/07/08 09:45:54;;;;;;;3.93;2.10;;;23.90;72.80;;;;;;4970289;28;20462;-64
2022/07/08 09:48:19;;;;;;;4.27;1.87;;;24.50;72.70;;;;;;4969690;28;20560;-63
2022/07/08 09:50:48;;;;;;;2.93;1.67;;;25.30;70.30;;;;;;4990149;23;20499;-67
2022/07/08 09:53:26;;;;;;;3.50;2.13;;;25.70;68.90;;;;;;4966283;28;20184;-67
2022/07/08 09:55:53;;;;;;;3.40;2.10;;;25.40;67.90;;;;;;4973010;28;20522;-67
2022/07/08 09:58:21;;;;;;;3.87;1.80;;;25.60;68.60;;;;;;4970573;28;20462;-67
2022/07/08 10:00:49;;;;;;;4.13;1.60;;;26.10;66.80;;;;;;4965797;28;20463;-67
2022/07/08 10:03:15;;;;;;;7.00;2.10;;;26.60;64.90;;;;;;4966943;28;20542;-67
2022/07/08 10:05:41;;;;;;;4.40;1.87;;;26.80;62.80;;;;;;4969428;28;20437;-67
2022/07/08 10:08:08;;;;;;;2.50;2.20;;;27.40;60.00;;;;;;4968915;28;20451;-67
2022/07/08 10:10:35;;;;;;;3.73;2.37;;;28.30;59.10;;;;;;4969666;28;20467;-65
2022/07/08 10:13:02;;;;;;;4.13;2.03;;;29.00;56.70;;;;;;4975602;28;20917;-65
2022/07/08 10:15:30;;;;;;;1.90;1.63;;;29.40;54.70;;;;;;4970181;28;20453;-64
2022/07/08 10:18:00;;;;;;;3.47;1.70;;;29.20;53.20;;;;;;4971208;28;20611;-65
2022/07/08 10:20:31;;;;;;;4.33;1.90;;;29.10;53.00;;;;;;4969774;28;20547;-65
2022/07/08 10:23:00;;;;;;;3.20;1.90;;;29.00;52.60;;;;;;4965665;28;20458;-65
2022/07/08 10:25:27;;;;;;;3.77;1.90;;;29.30;53.10;;;;;;4969535;28;20526;-65
2022/07/08 10:27:53;;;;;;;4.37;2.10;;;30.10;51.70;;;;;;4971228;28;20514;-65
2022/07/08 10:30:20;;;;;;;4.20;2.50;;;30.40;50.90;;;;;;4970327;28;20823;-65
2022/07/08 10:32:47;;;;;;;3.10;1.80;;;30.20;51.30;;;;;;4965310;28;20455;-65
2022/07/08 10:35:18;;;;;;;3.80;2.00;;;30.70;50.10;;;;;;4973516;28;20439;-65
2022/07/08 10:37:50;;;;;;;3.33;2.07;;;30.80;49.40;;;;;;4965981;28;20471;-65
2022/07/08 10:40:37;;;;;;;4.30;2.33;;;29.30;50.80;;;;;;4972215;28;20471;-65
2022/07/08 10:43:18;;;;;;;4.43;3.73;;;28.30;51.60;;;;;;4968523;28;20439;-65
2022/07/08 10:46:15;;;;;;;6.90;2.30;;;28.60;52.50;;;;;;4973741;28;20523;-65
2022/07/08 10:48:40;;;;;;;3.33;2.20;;;29.80;50.20;;;;;;4971671;28;20443;-64
2022/07/08 10:51:29;;;;;;;4.70;3.07;;;31.40;48.80;;;;;;4969396;28;20451;-65
2022/07/08 10:53:59;;;;;;;6.87;6.27;;;32.00;46.00;;;;;;4969551;28;20287;-62
2022/07/08 10:56:50;;;;;;;6.50;2.83;;;32.00;46.10;;;;;;4971764;28;20883;-62
2022/07/08 10:59:17;;;;;;;9.03;8.13;;;31.80;44.40;;;;;;4973783;28;20482;-63
2022/07/08 11:01:44;;;;;;;6.83;4.03;;;32.00;45.90;;;;;;4972001;28;20431;-63
2022/07/08 11:04:29;;;;;;;5.70;4.23;;;33.40;43.90;;;;;;4968067;28;20478;-63
2022/07/08 11:07:15;;;;;;;2.63;2.10;;;33.20;43.50;;;;;;4963746;28;20531;-63
2022/07/08 11:09:46;;;;;;;3.80;2.30;;;33.40;42.80;;;;;;4967243;28;20529;-63
2022/07/08 11:12:12;;;;;;;3.57;2.50;;;33.10;42.80;;;;;;4963641;28;20442;-63
2022/07/08 11:14:45;;;;;;;3.33;1.90;;;33.90;41.20;;;;;;4973012;28;20542;-63
2022/07/08 11:17:18;;;;;;;6.60;2.47;;;34.60;40.50;;;;;;4970686;28;20548;-63
2022/07/08 11:19:45;;;;;;;2.73;1.80;;;35.10;39.90;;;;;;4965353;28;20476;-63
2022/07/08 11:22:12;;;;;;;1.50;1.40;;;35.50;39.10;;;;;;4962839;28;20440;-63
2022/07/08 11:24:38;;;;;;;4.17;2.10;;;36.80;37.30;;;;;;4966934;28;20810;-63
2022/07/08 11:27:05;;;;;;;2.93;1.87;;;37.20;36.80;;;;;;4968252;28;20435;-63
2022/07/08 11:29:32;;;;;;;2.97;2.10;;;36.50;36.10;;;;;;4971768;28;20474;-63
2022/07/08 11:31:58;;;;;;;7.90;2.40;;;36.30;35.70;;;;;;4990786;28;20494;-63
2022/07/08 11:34:24;;;;;;;2.37;2.17;;;35.10;36.10;;;;;;4969529;28;20447;-65
2022/07/08 11:36:57;;;;;;;5.83;1.90;;;36.00;36.20;;;;;;4972977;28;20505;-65
2022/07/08 11:39:23;;;;;;;3.03;2.10;;;37.40;35.30;;;;;;4971073;28;20486;-65
2022/07/08 11:41:49;;;;;;;3.90;2.17;;;38.00;33.90;;;;;;4964594;28;20436;-65
2022/07/08 11:44:21;;;;;;;3.83;1.77;;;38.30;33.40;;;;;;4970835;28;20514;-65
2022/07/08 11:46:49;;;;;;;2.17;1.97;;;38.00;33.30;;;;;;4971831;28;20843;-65
2022/07/08 11:49:15;;;;;;;7.93;7.20;;;37.70;32.90;;;;;;4971983;28;21011;-65
2022/07/08 11:51:54;;;;;;;2.70;2.50;;;38.20;33.10;;;;;;4965848;28;20432;-65
2022/07/08 11:54:25;;;;;;;4.10;1.97;;;38.20;31.90;;;;;;4974271;28;20535;-65
2022/07/08 11:56:58;;;;;;;2.67;1.80;;;37.70;32.50;;;;;;4969298;28;20431;-65
2022/07/08 11:59:35;;;;;;;2.80;1.90;;;37.40;32.30;;;;;;4970810;28;20471;-65
2022/07/08 12:02:02;;;;;;;2.00;1.80;;;38.20;31.80;;;;;;4968227;28;20439;-66
2022/07/08 12:04:28;;;;;;;2.70;1.80;;;38.10;31.40;;;;;;4971465;28;20464;-66
2022/07/08 12:06:56;;;;;;;1.87;1.60;;;39.40;30.70;;;;;;4970554;28;20436;-66
2022/07/08 12:09:23;;;;;;;1.93;1.30;;;39.40;30.30;;;;;;4971692;28;20463;-65
2022/07/08 12:11:51;;;;;;;2.20;2.00;;;39.10;30.00;;;;;;4958993;28;20979;-66
2022/07/08 12:14:16;;;;;;;2.30;1.80;;;38.90;30.30;;;;;;4969981;28;20486;-66
2022/07/08 12:16:47;;;;;;;3.00;1.80;;;39.10;30.30;;;;;;4970391;28;21010;-65
2022/07/08 12:19:36;;;;;;;4.70;3.03;;;39.50;29.70;;;;;;4985745;28;20848;-65
2022/07/08 12:22:02;;;;;;;2.77;1.63;;;38.40;29.60;;;;;;4962750;28;20475;-66
2022/07/08 12:24:33;;;;;;;3.87;3.00;;;38.10;30.00;;;;;;4972590;28;20436;-65
2022/07/08 12:27:01;;;;;;;3.53;1.90;;;37.90;30.60;;;;;;4970804;28;20446;-66
2022/07/08 12:29:30;;;;;;;2.40;1.73;;;38.60;30.20;;;;;;4970062;28;20470;-65
2022/07/08 12:31:56;;;;;;;1.73;1.63;;;39.00;29.70;;;;;;4962138;28;20447;-66
2022/07/08 12:34:23;;;;;;;2.07;1.80;;;37.60;30.30;;;;;;4969183;28;20440;-67
2022/07/08 12:36:50;;;;;;;3.33;2.27;;;36.00;31.30;;;;;;4967693;28;20180;-66
2022/07/08 12:39:21;;;;;;;2.40;1.77;;;36.90;31.40;;;;;;4967893;28;20506;-66
2022/07/08 12:42:07;;;;;;;1.80;1.70;;;37.90;30.30;;;;;;4966169;28;20851;-66
2022/07/08 12:44:50;;;;;;;3.90;2.03;;;38.70;30.00;;;;;;4972777;28;20442;-65
2022/07/08 12:47:15;;;;;;;2.13;1.80;;;38.30;29.80;;;;;;4970234;28;20509;-66